Time;durP1;ratioP1;P1;durP2;ratioP2;P2;SDS_P1;SDS_P2;PMS_P1;PMS_P2;Temp;Humidity;BMP_temperature;BMP_pressure;BME280_temperature;BME280_humidity;BME280_pressure;Samples;Min_cycle;Max_cycle;Signal;HPM_P1;HPM_P2
2021/06/10 00:01:28;;;;;;;13.65;7.80;;;;;;;;;;4952858;29;20031;-68
2021/06/10 00:03:54;;;;;;;13.63;7.85;;;;;;;;;;4952709;29;20023;-66
2021/06/10 00:06:20;;;;;;;17.10;8.27;;;;;;;;;;4952909;28;20081;-69
2021/06/10 00:08:46;;;;;;;12.30;7.85;;;;;;;;;;4955854;29;20074;-67
2021/06/10 00:11:12;;;;;;;12.88;8.02;;;;;;;;;;4956326;29;20038;-69
2021/06/10 00:13:38;;;;;;;14.13;7.72;;;;;;;;;;4956494;29;20039;-67
2021/06/10 00:16:05;;;;;;;12.07;7.72;;;;;;;;;;4956539;29;20032;-69
2021/06/10 00:18:31;;;;;;;14.45;8.07;;;;;;;;;;4956120;29;20475;-68
2021/06/10 00:20:57;;;;;;;12.95;8.73;;;;;;;;;;4956637;29;20038;-67
2021/06/10 00:23:23;;;;;;;15.15;8.20;;;;;;;;;;4956066;29;20034;-64
2021/06/10 00:25:49;;;;;;;9.85;7.88;;;;;;;;;;4956204;29;20055;-70
2021/06/10 00:28:15;;;;;;;12.35;7.55;;;;;;;;;;4956271;29;20031;-64
2021/06/10 00:30:41;;;;;;;11.90;8.10;;;;;;;;;;4956370;29;20042;-68
2021/06/10 00:33:07;;;;;;;11.05;8.10;;;;;;;;;;4956188;29;20414;-67
2021/06/10 00:35:34;;;;;;;12.00;8.27;;;;;;;;;;4956391;29;20031;-68
2021/06/10 00:38:00;;;;;;;14.60;8.50;;;;;;;;;;4956136;29;20487;-65
2021/06/10 00:40:27;;;;;;;13.75;8.73;;;;;;;;;;4956198;29;20039;-65
2021/06/10 00:42:53;;;;;;;12.73;8.70;;;;;;;;;;4956251;29;20094;-70
2021/06/10 00:45:21;;;;;;;10.30;8.40;;;;;;;;;;4955927;29;20062;-66
2021/06/10 00:47:47;;;;;;;13.25;8.02;;;;;;;;;;4955840;29;20034;-65
2021/06/10 00:50:14;;;;;;;11.55;8.25;;;;;;;;;;4955832;29;20554;-69
2021/06/10 00:52:40;;;;;;;12.18;8.18;;;;;;;;;;4955860;29;20118;-68
2021/06/10 00:55:07;;;;;;;13.93;8.57;;;;;;;;;;4955649;29;20035;-68
2021/06/10 00:57:33;;;;;;;14.68;8.70;;;;;;;;;;4955899;29;20114;-67
2021/06/10 00:59:59;;;;;;;14.20;8.77;;;;;;;;;;4955782;29;20039;-66
2021/06/10 01:02:25;;;;;;;12.90;8.63;;;;;;;;;;4955853;29;20098;-64
2021/06/10 01:04:51;;;;;;;12.85;8.60;;;;;;;;;;4937854;29;20043;-64
2021/06/10 01:07:23;;;;;;;13.68;8.27;;;;;;;;;;4955645;29;20031;-67
2021/06/10 01:09:58;;;;;;;11.52;8.40;;;;;;;;;;4955592;29;20038;-65
2021/06/10 01:12:32;;;;;;;12.13;8.60;;;;;;;;;;4938274;29;20036;-68
2021/06/10 01:15:04;;;;;;;12.63;8.60;;;;;;;;;;4955615;29;20038;-65
2021/06/10 01:17:31;;;;;;;11.02;8.75;;;;;;;;;;4955432;28;20754;-68
2021/06/10 01:20:00;;;;;;;9.80;8.15;;;;;;;;;;4955043;29;20043;-67
2021/06/10 01:22:26;;;;;;;12.35;8.55;;;;;;;;;;4955290;29;20027;-64
2021/06/10 01:24:58;;;;;;;14.10;8.88;;;;;;;;;;4955260;29;20078;-68
2021/06/10 01:27:28;;;;;;;13.32;8.65;;;;;;;;;;4955031;29;20027;-66
2021/06/10 01:30:04;;;;;;;12.55;8.73;;;;;;;;;;4955171;29;20129;-68
2021/06/10 01:32:31;;;;;;;12.38;9.18;;;;;;;;;;4955220;29;20031;-64
2021/06/10 01:34:57;;;;;;;12.27;9.13;;;;;;;;;;4955101;29;20395;-65
2021/06/10 01:37:24;;;;;;;14.27;9.32;;;;;;;;;;4954737;29;20384;-67
2021/06/10 01:39:51;;;;;;;14.52;9.23;;;;;;;;;;4954811;29;20039;-68
2021/06/10 01:42:18;;;;;;;12.20;8.73;;;;;;;;;;4954729;29;20052;-65
2021/06/10 01:44:44;;;;;;;15.43;9.38;;;;;;;;;;4954933;29;20035;-68
2021/06/10 01:47:10;;;;;;;15.60;8.93;;;;;;;;;;4954821;29;20019;-65
2021/06/10 01:49:37;;;;;;;10.50;8.65;;;;;;;;;;4954761;29;20106;-68
2021/06/10 01:52:05;;;;;;;12.20;8.73;;;;;;;;;;4954750;29;20031;-65
2021/06/10 01:54:33;;;;;;;11.68;8.85;;;;;;;;;;4954605;29;20027;-68
2021/06/10 01:56:59;;;;;;;11.88;9.45;;;;;;;;;;4954759;29;20424;-66
2021/06/10 01:59:26;;;;;;;12.18;9.00;;;;;;;;;;4954555;29;20039;-68
2021/06/10 02:01:53;;;;;;;13.15;8.73;;;;;;;;;;4955810;29;20440;-64
2021/06/10 02:04:22;;;;;;;15.07;8.80;;;;;;;;;;4955755;29;20110;-65
2021/06/10 02:06:49;;;;;;;11.85;8.98;;;;;;;;;;4954323;29;20023;-66
2021/06/10 02:09:15;;;;;;;12.13;9.38;;;;;;;;;;4954253;29;20032;-67
2021/06/10 02:11:42;;;;;;;13.98;9.00;;;;;;;;;;4954391;29;20095;-64
2021/06/10 02:14:08;;;;;;;16.02;8.85;;;;;;;;;;4954335;29;20035;-63
2021/06/10 02:16:38;;;;;;;14.15;8.52;;;;;;;;;;4954174;29;20023;-63
2021/06/10 02:19:04;;;;;;;11.98;9.43;;;;;;;;;;4954128;29;20387;-67
2021/06/10 02:21:31;;;;;;;11.02;9.02;;;;;;;;;;4954103;29;20032;-66
2021/06/10 02:23:57;;;;;;;11.90;9.20;;;;;;;;;;4954292;29;20494;-64
2021/06/10 02:26:23;;;;;;;12.10;9.23;;;;;;;;;;4936506;29;20482;-64
2021/06/10 02:28:50;;;;;;;16.17;9.60;;;;;;;;;;4954207;29;20808;-65
2021/06/10 02:31:16;;;;;;;14.02;9.70;;;;;;;;;;4953592;28;20035;-65
2021/06/10 02:33:43;;;;;;;13.75;10.20;;;;;;;;;;4954024;29;20035;-68
2021/06/10 02:36:10;;;;;;;13.38;9.85;;;;;;;;;;4953949;29;20119;-62
2021/06/10 02:38:36;;;;;;;13.20;9.77;;;;;;;;;;4953696;29;20661;-63
2021/06/10 02:41:03;;;;;;;12.07;10.13;;;;;;;;;;4953591;29;20055;-68
2021/06/10 02:43:31;;;;;;;16.88;9.95;;;;;;;;;;4953929;29;20046;-64
2021/06/10 02:45:58;;;;;;;13.65;10.43;;;;;;;;;;4953925;29;20029;-63
2021/06/10 02:48:24;;;;;;;14.38;10.07;;;;;;;;;;4953537;29;20066;-65
2021/06/10 02:50:51;;;;;;;13.55;9.57;;;;;;;;;;4953826;29;20031;-65
2021/06/10 02:53:20;;;;;;;12.23;9.63;;;;;;;;;;4953469;29;20035;-65
2021/06/10 02:55:47;;;;;;;18.45;10.80;;;;;;;;;;4953460;29;20520;-69
2021/06/10 02:58:18;;;;;;;16.40;11.10;;;;;;;;;;4953432;29;20039;-66
2021/06/10 03:00:45;;;;;;;12.95;9.88;;;;;;;;;;4953468;29;20050;-67
2021/06/10 03:03:12;;;;;;;15.15;10.20;;;;;;;;;;4953531;29;20039;-67
2021/06/10 03:05:39;;;;;;;15.70;10.57;;;;;;;;;;4953621;29;20494;-63
2021/06/10 03:08:06;;;;;;;14.55;10.25;;;;;;;;;;4953449;29;20038;-67
2021/06/10 03:10:32;;;;;;;14.63;9.77;;;;;;;;;;4953511;29;20027;-66
2021/06/10 03:12:59;;;;;;;13.02;9.70;;;;;;;;;;4953283;29;20399;-68
2021/06/10 03:15:26;;;;;;;15.10;11.02;;;;;;;;;;4953434;29;20031;-67
2021/06/10 03:17:52;;;;;;;16.05;9.65;;;;;;;;;;4953203;29;20494;-66
2021/06/10 03:20:18;;;;;;;12.05;8.43;;;;;;;;;;4952854;29;20039;-65
2021/06/10 03:22:45;;;;;;;13.27;9.35;;;;;;;;;;4953133;29;20035;-67
2021/06/10 03:25:11;;;;;;;13.13;9.20;;;;;;;;;;4953411;29;20106;-65
2021/06/10 03:27:38;;;;;;;12.95;9.38;;;;;;;;;;4953217;29;20031;-64
2021/06/10 03:30:06;;;;;;;15.75;9.75;;;;;;;;;;4953187;29;20443;-67
2021/06/10 03:32:32;;;;;;;14.85;10.00;;;;;;;;;;4953357;29;20023;-68
2021/06/10 03:34:58;;;;;;;13.77;9.55;;;;;;;;;;4952854;29;20031;-65
2021/06/10 03:37:24;;;;;;;15.07;9.30;;;;;;;;;;4953006;29;20038;-68
2021/06/10 03:39:51;;;;;;;12.68;9.50;;;;;;;;;;4952874;29;20475;-68
2021/06/10 03:42:18;;;;;;;16.63;9.00;;;;;;;;;;4957112;28;20047;-65
2021/06/10 03:44:44;;;;;;;12.82;9.43;;;;;;;;;;4959360;29;20072;-65
2021/06/10 03:47:12;;;;;;;13.95;8.90;;;;;;;;;;4959636;28;20039;-65
2021/06/10 03:49:39;;;;;;;14.45;9.25;;;;;;;;;;4959275;29;20468;-66
2021/06/10 03:52:06;;;;;;;16.17;9.40;;;;;;;;;;4959508;29;20166;-68
2021/06/10 03:54:32;;;;;;;11.30;9.00;;;;;;;;;;4959016;29;20089;-66
2021/06/10 03:56:58;;;;;;;13.77;9.60;;;;;;;;;;4959295;29;20023;-63
2021/06/10 03:59:24;;;;;;;13.10;9.48;;;;;;;;;;4958986;28;20392;-64
2021/06/10 04:01:50;;;;;;;13.10;9.30;;;;;;;;;;4959342;29;20028;-65
2021/06/10 04:04:19;;;;;;;12.88;9.32;;;;;;;;;;4959406;28;20086;-64
2021/06/10 04:06:46;;;;;;;13.93;9.70;;;;;;;;;;4959536;28;20045;-67
2021/06/10 04:09:12;;;;;;;16.33;9.68;;;;;;;;;;4959371;28;20443;-66
2021/06/10 04:11:38;;;;;;;10.40;9.20;;;;;;;;;;4959190;29;20054;-64
2021/06/10 04:14:04;;;;;;;13.27;9.32;;;;;;;;;;4959426;28;20027;-65
2021/06/10 04:16:31;;;;;;;14.25;9.32;;;;;;;;;;4959402;28;20111;-67
2021/06/10 04:18:57;;;;;;;15.73;10.00;;;;;;;;;;4959003;29;20054;-65
2021/06/10 04:21:23;;;;;;;13.52;9.25;;;;;;;;;;4959061;29;20467;-67
2021/06/10 04:23:50;;;;;;;14.07;9.05;;;;;;;;;;4958918;29;20024;-66
2021/06/10 04:26:17;;;;;;;13.40;9.30;;;;;;;;;;4959106;29;20031;-65
2021/06/10 04:28:47;;;;;;;10.23;9.10;;;;;;;;;;4959181;29;20031;-69
2021/06/10 04:31:14;;;;;;;13.88;9.70;;;;;;;;;;4959169;28;20114;-68
2021/06/10 04:33:40;;;;;;;13.93;9.65;;;;;;;;;;4941574;29;20447;-66
2021/06/10 04:36:06;;;;;;;11.15;9.80;;;;;;;;;;4959201;29;20035;-65
2021/06/10 04:38:32;;;;;;;14.77;10.38;;;;;;;;;;4958930;28;20387;-66
2021/06/10 04:40:58;;;;;;;12.88;10.10;;;;;;;;;;4958671;29;20053;-64
2021/06/10 04:43:24;;;;;;;14.50;8.77;;;;;;;;;;4940928;29;20476;-66
2021/06/10 04:45:50;;;;;;;14.10;8.60;;;;;;;;;;4958040;29;20023;-64
2021/06/10 04:48:16;;;;;;;11.63;9.00;;;;;;;;;;4958182;28;20066;-65
2021/06/10 04:50:42;;;;;;;12.02;9.38;;;;;;;;;;4958156;28;20387;-65
2021/06/10 04:53:08;;;;;;;15.02;9.73;;;;;;;;;;4956580;28;20030;-65
2021/06/10 04:55:34;;;;;;;13.55;10.18;;;;;;;;;;4955815;29;20114;-65
2021/06/10 04:58:01;;;;;;;13.63;9.88;;;;;;;;;;4955614;29;20031;-66
2021/06/10 05:00:27;;;;;;;12.50;9.00;;;;;;;;;;4955572;29;20175;-67
2021/06/10 05:02:53;;;;;;;10.18;8.48;;;;;;;;;;4955628;29;20027;-64
2021/06/10 05:05:19;;;;;;;10.25;8.57;;;;;;;;;;4955788;29;20364;-67
2021/06/10 05:07:45;;;;;;;11.68;8.57;;;;;;;;;;4955415;29;20032;-64
2021/06/10 05:10:12;;;;;;;13.07;8.43;;;;;;;;;;4955141;29;20498;-63
2021/06/10 05:12:38;;;;;;;12.10;9.32;;;;;;;;;;4955323;29;20031;-64
2021/06/10 05:15:05;;;;;;;11.02;8.02;;;;;;;;;;4955286;29;20031;-64
2021/06/10 05:17:31;;;;;;;10.85;8.68;;;;;;;;;;4955366;29;20030;-65
2021/06/10 05:19:57;;;;;;;11.93;8.82;;;;;;;;;;4955277;29;20050;-63
2021/06/10 05:22:23;;;;;;;11.00;8.40;;;;;;;;;;4954971;29;20798;-63
2021/06/10 05:24:49;;;;;;;11.65;7.70;;;;;;;;;;4954961;29;20682;-63
2021/06/10 05:27:15;;;;;;;9.85;7.20;;;;;;;;;;4955004;29;20029;-63
2021/06/10 05:29:41;;;;;;;10.90;7.63;;;;;;;;;;4954826;29;20031;-64
2021/06/10 05:32:08;;;;;;;11.95;6.70;;;;;;;;;;4955316;29;20547;-63
2021/06/10 05:34:34;;;;;;;9.18;6.65;;;;;;;;;;4954977;29;20039;-70
2021/06/10 05:37:00;;;;;;;10.90;6.75;;;;;;;;;;4937905;29;20028;-71
2021/06/10 05:39:26;;;;;;;13.13;7.45;;;;;;;;;;4954374;29;20487;-66
2021/06/10 05:41:53;;;;;;;15.05;7.90;;;;;;;;;;4954539;29;20056;-62
2021/06/10 05:44:20;;;;;;;11.60;6.35;;;;;;;;;;4954637;29;20027;-67
2021/06/10 05:46:48;;;;;;;12.80;6.13;;;;;;;;;;4954412;29;20027;-64
2021/06/10 05:49:14;;;;;;;10.63;6.63;;;;;;;;;;4954693;29;20170;-67
2021/06/10 05:51:40;;;;;;;12.65;6.60;;;;;;;;;;4954339;29;20034;-62
2021/06/10 05:54:06;;;;;;;12.38;6.85;;;;;;;;;;4954462;29;20038;-68
2021/06/10 05:56:32;;;;;;;13.93;6.90;;;;;;;;;;4954543;29;20499;-68
2021/06/10 05:58:58;;;;;;;15.60;7.15;;;;;;;;;;4954114;29;20491;-64
2021/06/10 06:01:24;;;;;;;15.80;8.23;;;;;;;;;;4954512;29;20039;-67
2021/06/10 06:03:50;;;;;;;13.98;8.90;;;;;;;;;;4937034;28;20518;-66
2021/06/10 06:06:18;;;;;;;17.80;8.85;;;;;;;;;;4953253;29;20031;-66
2021/06/10 06:08:45;;;;;;;13.98;8.57;;;;;;;;;;4954276;29;20505;-66
2021/06/10 06:11:11;;;;;;;13.90;9.27;;;;;;;;;;4954253;29;20098;-67
2021/06/10 06:13:47;;;;;;;12.52;8.25;;;;;;;;;;4954155;29;20026;-66
2021/06/10 06:16:14;;;;;;;11.65;7.97;;;;;;;;;;4954249;29;20082;-69
2021/06/10 06:18:41;;;;;;;15.32;8.48;;;;;;;;;;4954088;29;20019;-69
2021/06/10 06:21:07;;;;;;;14.95;7.95;;;;;;;;;;4954042;29;20195;-66
2021/06/10 06:23:33;;;;;;;15.15;8.45;;;;;;;;;;4953913;29;20062;-68
2021/06/10 06:26:00;;;;;;;13.20;9.43;;;;;;;;;;4954105;29;20042;-68
2021/06/10 06:28:27;;;;;;;14.02;9.23;;;;;;;;;;4953860;29;20464;-68
2021/06/10 06:30:53;;;;;;;13.00;9.30;;;;;;;;;;4953932;29;20027;-69
2021/06/10 06:33:19;;;;;;;17.02;9.38;;;;;;;;;;4953936;29;20423;-69
2021/06/10 06:35:45;;;;;;;13.65;8.82;;;;;;;;;;4953934;29;20567;-67
2021/06/10 06:38:12;;;;;;;14.80;9.35;;;;;;;;;;4954063;29;20038;-67
2021/06/10 06:40:38;;;;;;;16.00;9.18;;;;;;;;;;4953423;29;20035;-67
2021/06/10 06:43:06;;;;;;;14.80;9.52;;;;;;;;;;4950437;29;20035;-67
2021/06/10 06:45:33;;;;;;;14.57;9.02;;;;;;;;;;4953375;29;20031;-73
2021/06/10 06:47:59;;;;;;;14.30;9.48;;;;;;;;;;4953908;29;20071;-68
2021/06/10 06:50:25;;;;;;;16.92;9.45;;;;;;;;;;4953781;29;20031;-68
2021/06/10 06:52:51;;;;;;;15.30;9.35;;;;;;;;;;4953461;29;20057;-74
2021/06/10 06:55:17;;;;;;;13.35;8.63;;;;;;;;;;4953341;29;20061;-70
2021/06/10 06:57:44;;;;;;;13.43;8.77;;;;;;;;;;4953535;29;20035;-68
2021/06/10 07:00:10;;;;;;;12.98;8.23;;;;;;;;;;4953272;29;20043;-67
2021/06/10 07:02:36;;;;;;;14.38;9.02;;;;;;;;;;4953156;29;20515;-67
2021/06/10 07:05:03;;;;;;;17.02;9.40;;;;;;;;;;4953093;29;20031;-80
2021/06/10 07:07:29;;;;;;;18.60;8.73;;;;;;;;;;4953257;29;20038;-75
2021/06/10 07:09:55;;;;;;;16.13;8.45;;;;;;;;;;4952888;29;20543;-68
2021/06/10 07:12:21;;;;;;;12.82;7.70;;;;;;;;;;4952910;29;20522;-68
2021/06/10 07:14:47;;;;;;;14.65;7.90;;;;;;;;;;4953170;29;20049;-72
2021/06/10 07:17:13;;;;;;;13.82;7.93;;;;;;;;;;4946514;29;20419;-69
2021/06/10 07:19:39;;;;;;;15.48;8.00;;;;;;;;;;4934126;29;20145;-69
2021/06/10 07:22:05;;;;;;;14.32;7.88;;;;;;;;;;4934002;29;20058;-74
2021/06/10 07:24:31;;;;;;;15.45;8.20;;;;;;;;;;4933542;29;20118;-67
2021/06/10 07:26:57;;;;;;;14.90;7.80;;;;;;;;;;4933410;29;20024;-70
2021/06/10 07:29:23;;;;;;;14.73;8.82;;;;;;;;;;4932522;29;20567;-70
2021/06/10 07:31:49;;;;;;;14.60;8.77;;;;;;;;;;4934125;29;20038;-67
2021/06/10 07:34:15;;;;;;;16.25;8.50;;;;;;;;;;4934171;29;20083;-70
2021/06/10 07:36:41;;;;;;;16.13;8.77;;;;;;;;;;4933821;29;20059;-73
2021/06/10 07:39:09;;;;;;;12.07;7.10;;;;;;;;;;4933688;29;20039;-69
2021/06/10 07:41:36;;;;;;;14.15;7.40;;;;;;;;;;4933493;29;20130;-73
2021/06/10 07:44:03;;;;;;;12.75;7.30;;;;;;;;;;4933566;29;20441;-74
2021/06/10 07:46:29;;;;;;;10.80;7.05;;;;;;;;;;4916179;29;20468;-68
2021/06/10 07:48:55;;;;;;;8.85;6.65;;;;;;;;;;4933465;29;20020;-73
2021/06/10 07:51:21;;;;;;;10.80;7.15;;;;;;;;;;4933416;29;20031;-68
2021/06/10 07:53:47;;;;;;;14.30;7.22;;;;;;;;;;4933386;29;20808;-70
2021/06/10 07:56:13;;;;;;;10.35;6.53;;;;;;;;;;4944295;29;20395;-62
2021/06/10 07:58:39;;;;;;;12.52;7.28;;;;;;;;;;4933429;29;20448;-66
2021/06/10 08:01:08;;;;;;;10.55;7.07;;;;;;;;;;4915619;29;20423;-69
2021/06/10 08:03:34;;;;;;;12.60;6.82;;;;;;;;;;4933359;29;20028;-69
2021/06/10 08:06:01;;;;;;;11.45;7.00;;;;;;;;;;4933102;29;20395;-69
2021/06/10 08:08:27;;;;;;;11.88;6.78;;;;;;;;;;4933400;29;20020;-68
2021/06/10 08:10:54;;;;;;;12.70;7.18;;;;;;;;;;4932737;29;20094;-68
2021/06/10 08:13:24;;;;;;;12.00;7.32;;;;;;;;;;4933034;29;20118;-70
2021/06/10 08:15:51;;;;;;;10.20;6.72;;;;;;;;;;4934175;29;20146;-68
2021/06/10 08:18:17;;;;;;;10.52;6.30;;;;;;;;;;4933335;29;20035;-69
2021/06/10 08:20:46;;;;;;;10.35;5.85;;;;;;;;;;4933123;29;20040;-72
2021/06/10 08:23:13;;;;;;;11.80;6.18;;;;;;;;;;4928606;29;20023;-71
2021/06/10 08:25:43;;;;;;;8.23;6.05;;;;;;;;;;4942109;29;20027;-71
2021/06/10 08:28:10;;;;;;;11.85;6.00;;;;;;;;;;4950305;28;20374;-70
2021/06/10 08:30:37;;;;;;;8.65;5.85;;;;;;;;;;4938693;29;20078;-70
2021/06/10 08:33:03;;;;;;;10.73;6.00;;;;;;;;;;4942259;29;20041;-70
2021/06/10 08:35:29;;;;;;;13.75;6.60;;;;;;;;;;4940744;29;20417;-74
2021/06/10 08:37:56;;;;;;;9.93;6.50;;;;;;;;;;4947214;29;20036;-72
2021/06/10 08:40:31;;;;;;;8.98;5.90;;;;;;;;;;4943261;29;20036;-69
2021/06/10 08:42:57;;;;;;;10.40;4.78;;;;;;;;;;4925774;29;20044;-73
2021/06/10 08:45:27;;;;;;;5.93;4.38;;;;;;;;;;4928380;29;20028;-72
2021/06/10 08:47:53;;;;;;;7.53;4.85;;;;;;;;;;4918741;29;20107;-70
2021/06/10 08:50:23;;;;;;;12.82;5.30;;;;;;;;;;4932485;29;20032;-73
2021/06/10 08:52:49;;;;;;;9.00;5.28;;;;;;;;;;4925681;29;20028;-73
2021/06/10 08:55:16;;;;;;;8.20;4.32;;;;;;;;;;4929962;29;20032;-73
2021/06/10 08:57:42;;;;;;;6.85;4.25;;;;;;;;;;4934177;29;20031;-76
2021/06/10 09:00:08;;;;;;;6.32;4.80;;;;;;;;;;4935182;29;20554;-75
2021/06/10 09:02:35;;;;;;;8.38;5.20;;;;;;;;;;4922868;29;20028;-70
2021/06/10 09:05:04;;;;;;;6.18;4.80;;;;;;;;;;4918658;29;20440;-68
2021/06/10 09:07:37;;;;;;;7.53;4.32;;;;;;;;;;4924321;29;20083;-71
2021/06/10 09:10:07;;;;;;;9.68;4.43;;;;;;;;;;4904524;29;20043;-74
2021/06/10 09:12:57;;;;;;;6.70;4.40;;;;;;;;;;4925711;29;20062;-72
2021/06/10 09:15:26;;;;;;;10.02;4.43;;;;;;;;;;4834036;29;20117;-75
2021/06/10 09:17:54;;;;;;;7.00;4.40;;;;;;;;;;4806060;29;20042;-73
2021/06/10 09:20:24;;;;;;;6.82;4.70;;;;;;;;;;4826900;29;20538;-71
2021/06/10 09:22:52;;;;;;;9.57;4.47;;;;;;;;;;4810861;29;20033;-71
2021/06/10 09:25:19;;;;;;;6.88;4.03;;;;;;;;;;4835411;29;20469;-73
2021/06/10 09:27:54;;;;;;;7.80;4.03;;;;;;;;;;4830452;29;20038;-73
2021/06/10 09:30:34;;;;;;;7.95;4.20;;;;;;;;;;4831239;29;20108;-70
2021/06/10 09:33:01;;;;;;;6.88;4.00;;;;;;;;;;4823040;29;20567;-75
2021/06/10 09:35:30;;;;;;;5.75;4.30;;;;;;;;;;4826914;29;20034;-73
2021/06/10 09:38:00;;;;;;;6.38;4.40;;;;;;;;;;4825499;29;20128;-73
2021/06/10 09:40:28;;;;;;;7.03;4.82;;;;;;;;;;4831050;29;20062;-71
2021/06/10 09:42:55;;;;;;;7.50;4.82;;;;;;;;;;4852410;29;20144;-77
2021/06/10 09:45:24;;;;;;;9.93;4.57;;;;;;;;;;4846975;29;20638;-69
2021/06/10 09:47:54;;;;;;;8.13;4.40;;;;;;;;;;4851410;29;20508;-68
2021/06/10 09:50:30;;;;;;;7.47;4.60;;;;;;;;;;4840304;29;20044;-75
2021/06/10 09:52:56;;;;;;;6.70;5.03;;;;;;;;;;4914689;29;20491;-81
2021/06/10 09:55:32;;;;;;;11.75;4.47;;;;;;;;;;4942896;29;20526;-62
2021/06/10 09:58:13;;;;;;;7.88;5.28;;;;;;;;;;4934825;29;20028;-70
2021/06/10 10:00:49;;;;;;;8.70;5.22;;;;;;;;;;4934989;29;20071;-73
2021/06/10 10:03:24;;;;;;;4.88;3.95;;;;;;;;;;4934648;29;20035;-64
2021/06/10 10:05:51;;;;;;;6.45;4.68;;;;;;;;;;4934962;29;20058;-68
2021/06/10 10:08:17;;;;;;;7.28;5.15;;;;;;;;;;4934567;29;20051;-68
2021/06/10 10:10:44;;;;;;;6.28;4.30;;;;;;;;;;4934639;29;20091;-67
2021/06/10 10:13:14;;;;;;;9.85;5.05;;;;;;;;;;4934424;29;20036;-69
2021/06/10 10:15:40;;;;;;;8.65;4.93;;;;;;;;;;4934921;29;20023;-73
2021/06/10 10:18:06;;;;;;;8.55;4.65;;;;;;;;;;4936344;29;20023;-68
2021/06/10 10:20:33;;;;;;;7.05;4.78;;;;;;;;;;4936336;29;20047;-69
2021/06/10 10:22:59;;;;;;;10.05;4.88;;;;;;;;;;4934754;29;20024;-77
2021/06/10 10:25:26;;;;;;;7.53;5.03;;;;;;;;;;4919580;29;20090;-74
2021/06/10 10:27:53;;;;;;;9.73;4.55;;;;;;;;;;4919621;29;20444;-71
2021/06/10 10:30:21;;;;;;;13.35;5.38;;;;;;;;;;4918210;29;20451;-71
2021/06/10 10:32:47;;;;;;;9.77;4.68;;;;;;;;;;4918537;29;20023;-70
2021/06/10 10:35:16;;;;;;;7.07;4.40;;;;;;;;;;4937802;29;20055;-76
2021/06/10 10:37:42;;;;;;;6.78;4.00;;;;;;;;;;4939375;29;20572;-67
2021/06/10 10:40:09;;;;;;;5.53;3.35;;;;;;;;;;4923501;29;20053;-71
2021/06/10 10:42:36;;;;;;;7.38;3.70;;;;;;;;;;4921517;29;20051;-73
2021/06/10 10:45:31;;;;;;;6.57;3.80;;;;;;;;;;4938129;29;20027;-78
2021/06/10 10:48:07;;;;;;;7.82;3.70;;;;;;;;;;4936972;29;20364;-74
2021/06/10 10:50:38;;;;;;;8.95;4.10;;;;;;;;;;4922286;29;20047;-76
2021/06/10 10:53:08;;;;;;;8.18;4.15;;;;;;;;;;4941116;29;20027;-76
2021/06/10 10:55:34;;;;;;;6.15;4.20;;;;;;;;;;4944525;29;20062;-75
2021/06/10 10:58:05;;;;;;;7.28;3.88;;;;;;;;;;4922193;29;20030;-69
2021/06/10 11:00:49;;;;;;;6.82;4.00;;;;;;;;;;4950579;29;20090;-73
2021/06/10 11:03:20;;;;;;;5.50;3.67;;;;;;;;;;4953623;29;20415;-60
2021/06/10 11:05:47;;;;;;;7.00;4.30;;;;;;;;;;4953091;29;20035;-71
2021/06/10 11:08:13;;;;;;;6.65;3.92;;;;;;;;;;4953353;29;20069;-68
2021/06/10 11:10:39;;;;;;;6.43;3.38;;;;;;;;;;4935758;29;20035;-66
2021/06/10 11:13:18;;;;;;;7.00;3.65;;;;;;;;;;4953028;29;20035;-66
2021/06/10 11:15:44;;;;;;;7.07;3.50;;;;;;;;;;4953079;29;20042;-67
2021/06/10 11:18:11;;;;;;;16.92;3.90;;;;;;;;;;4953096;29;20031;-64
2021/06/10 11:20:37;;;;;;;4.60;3.80;;;;;;;;;;4952717;29;20039;-68
2021/06/10 11:23:12;;;;;;;5.60;3.35;;;;;;;;;;4942568;29;20074;-68
2021/06/10 11:25:40;;;;;;;8.10;3.50;;;;;;;;;;4943158;29;20040;-71
2021/06/10 11:28:08;;;;;;;6.40;3.90;;;;;;;;;;4947679;29;20042;-67
2021/06/10 11:30:35;;;;;;;4.68;3.08;;;;;;;;;;4935506;29;20031;-69
2021/06/10 11:33:12;;;;;;;8.88;3.53;;;;;;;;;;4934153;29;20047;-67
2021/06/10 11:35:41;;;;;;;3.92;3.22;;;;;;;;;;4936594;29;20110;-65
2021/06/10 11:38:22;;;;;;;5.55;3.63;;;;;;;;;;4938675;29;20050;-66
2021/06/10 11:41:04;;;;;;;7.15;3.72;;;;;;;;;;4940000;29;20423;-66
2021/06/10 11:43:31;;;;;;;6.60;3.40;;;;;;;;;;4934871;29;20039;-66
2021/06/10 11:45:58;;;;;;;6.80;3.47;;;;;;;;;;4936670;29;20031;-64
2021/06/10 11:48:43;;;;;;;5.82;3.60;;;;;;;;;;4942698;29;20301;-65
2021/06/10 11:51:17;;;;;;;7.95;3.40;;;;;;;;;;4937692;29;20027;-63
2021/06/10 11:53:43;;;;;;;5.63;3.17;;;;;;;;;;4927153;29;20544;-68
2021/06/10 11:56:09;;;;;;;7.03;3.15;;;;;;;;;;4946119;29;20560;-65
2021/06/10 11:58:35;;;;;;;5.88;3.40;;;;;;;;;;4933803;29;20059;-67
2021/06/10 12:01:11;;;;;;;5.50;3.40;;;;;;;;;;4937696;29;20082;-66
2021/06/10 12:03:39;;;;;;;4.55;2.90;;;;;;;;;;4946017;29;20467;-68
2021/06/10 12:06:07;;;;;;;9.20;3.28;;;;;;;;;;4945997;29;20036;-66
2021/06/10 12:08:35;;;;;;;7.30;2.78;;;;;;;;;;4941790;29;20854;-67
2021/06/10 12:11:04;;;;;;;5.03;2.63;;;;;;;;;;4949350;29;20035;-69
2021/06/10 12:13:34;;;;;;;6.78;3.00;;;;;;;;;;4952954;29;20043;-68
2021/06/10 12:16:01;;;;;;;5.15;2.70;;;;;;;;;;4943896;29;20038;-68
2021/06/10 12:18:28;;;;;;;8.75;2.80;;;;;;;;;;4955486;29;20097;-68
2021/06/10 12:20:57;;;;;;;4.38;2.50;;;;;;;;;;4934907;29;20043;-67
2021/06/10 12:23:24;;;;;;;4.35;2.40;;;;;;;;;;4947116;29;20102;-65
2021/06/10 12:25:52;;;;;;;6.05;3.05;;;;;;;;;;4939910;29;20056;-66
2021/06/10 12:28:30;;;;;;;6.13;2.90;;;;;;;;;;4937594;29;20411;-66
2021/06/10 12:31:16;;;;;;;4.65;2.80;;;;;;;;;;4940633;29;20142;-66
2021/06/10 12:33:49;;;;;;;6.15;2.55;;;;;;;;;;4949082;29;20097;-68
2021/06/10 12:36:17;;;;;;;9.23;2.70;;;;;;;;;;4942255;29;20040;-65
2021/06/10 12:38:45;;;;;;;5.93;3.00;;;;;;;;;;4940483;29;20075;-66
2021/06/10 12:41:14;;;;;;;4.63;2.40;;;;;;;;;;4943492;29;20039;-65
2021/06/10 12:43:40;;;;;;;6.40;2.83;;;;;;;;;;4944037;29;20423;-65
2021/06/10 12:46:07;;;;;;;5.75;2.53;;;;;;;;;;4941269;29;20086;-65
2021/06/10 12:48:36;;;;;;;6.30;2.58;;;;;;;;;;4949822;29;20030;-66
2021/06/10 12:51:18;;;;;;;4.25;2.50;;;;;;;;;;4950161;29;20490;-66
2021/06/10 12:53:58;;;;;;;6.00;3.20;;;;;;;;;;4942389;29;20035;-66
2021/06/10 12:56:34;;;;;;;10.15;3.17;;;;;;;;;;4940444;29;20027;-63
2021/06/10 12:59:00;;;;;;;6.13;2.90;;;;;;;;;;4937134;29;20111;-62
2021/06/10 13:01:26;;;;;;;6.47;3.08;;;;;;;;;;4940115;29;20031;-63
2021/06/10 13:03:53;;;;;;;6.40;3.50;;;;;;;;;;4947170;29;20471;-77
2021/06/10 13:06:22;;;;;;;6.28;3.35;;;;;;;;;;4950057;29;20035;-67
2021/06/10 13:08:49;;;;;;;6.22;3.30;;;;;;;;;;4954273;29;20102;-66
2021/06/10 13:11:16;;;;;;;6.30;3.25;;;;;;;;;;4956126;29;20035;-72
2021/06/10 13:13:42;;;;;;;10.88;3.20;;;;;;;;;;4954425;28;20031;-73
2021/06/10 13:16:11;;;;;;;6.28;3.10;;;;;;;;;;4954928;29;20055;-68
2021/06/10 13:18:38;;;;;;;8.40;3.05;;;;;;;;;;4955013;29;20109;-68
2021/06/10 13:21:17;;;;;;;7.93;3.30;;;;;;;;;;4955354;29;20632;-70
2021/06/10 13:23:49;;;;;;;7.70;2.90;;;;;;;;;;4954596;29;20047;-76
2021/06/10 13:26:16;;;;;;;;;;;;;;;;;;4956681;29;20031;-71
2021/06/10 13:28:55;;;;;;;5.82;3.10;;;;;;;;;;4937131;29;19965;-69
2021/06/10 13:31:34;;;;;;;5.22;3.50;;;;;;;;;;4956212;29;20078;-71
2021/06/10 13:34:17;;;;;;;9.18;3.13;;;;;;;;;;4955269;29;20062;-74
2021/06/10 13:36:53;;;;;;;5.13;2.92;;;;;;;;;;4956006;29;20038;-65
2021/06/10 13:39:20;;;;;;;4.95;2.90;;;;;;;;;;4956028;29;20035;-69
2021/06/10 13:41:47;;;;;;;7.72;3.38;;;;;;;;;;4954228;29;20415;-60
2021/06/10 13:44:13;;;;;;;3.60;2.90;;;;;;;;;;4955345;29;20027;-73
2021/06/10 13:46:39;;;;;;;7.43;3.08;;;;;;;;;;4937237;29;20031;-72
2021/06/10 13:49:05;;;;;;;8.30;3.25;;;;;;;;;;4953516;29;20486;-70
2021/06/10 13:51:31;;;;;;;4.68;2.80;;;;;;;;;;4954118;29;20039;-69
2021/06/10 13:53:58;;;;;;;6.03;2.88;;;;;;;;;;4936567;29;20118;-71
2021/06/10 13:56:26;;;;;;;6.03;2.88;;;;;;;;;;4937361;29;20506;-65
2021/06/10 13:58:52;;;;;;;4.95;3.20;;;;;;;;;;4953340;29;20069;-62
2021/06/10 14:01:19;;;;;;;5.18;2.90;;;;;;;;;;4952972;29;20046;-64
2021/06/10 14:03:45;;;;;;;4.93;3.13;;;;;;;;;;4952109;29;20610;-67
2021/06/10 14:06:11;;;;;;;3.08;2.72;;;;;;;;;;4953389;29;20106;-65
2021/06/10 14:08:38;;;;;;;6.68;2.85;;;;;;;;;;4953911;29;20027;-72
2021/06/10 14:11:07;;;;;;;3.67;2.45;;;;;;;;;;4953989;29;20031;-71
2021/06/10 14:13:33;;;;;;;5.18;2.80;;;;;;;;;;4936549;29;20031;-68
2021/06/10 14:15:59;;;;;;;4.90;2.80;;;;;;;;;;4953039;29;20031;-60
2021/06/10 14:18:26;;;;;;;5.85;2.97;;;;;;;;;;4953539;29;20031;-72
2021/06/10 14:20:52;;;;;;;6.65;3.30;;;;;;;;;;4951850;29;20047;-71
2021/06/10 14:23:18;;;;;;;6.05;3.15;;;;;;;;;;4935273;29;20427;-70
2021/06/10 14:25:44;;;;;;;7.38;3.30;;;;;;;;;;4951984;28;20035;-72
2021/06/10 14:28:10;;;;;;;8.90;3.33;;;;;;;;;;4953072;29;20031;-73
2021/06/10 14:33:06;;;;;;;6.47;3.00;;;;;;;;;;4954392;29;20046;-66
2021/06/10 14:35:33;;;;;;;4.50;2.88;;;;;;;;;;4953117;29;20027;-70
2021/06/10 14:38:01;;;;;;;4.75;3.03;;;;;;;;;;4953563;29;20023;-69
2021/06/10 14:40:27;;;;;;;6.63;3.13;;;;;;;;;;4951040;29;20401;-66
2021/06/10 14:42:53;;;;;;;6.60;3.05;;;;;;;;;;4952532;29;20063;-66